Time;durP1;ratioP1;P1;durP2;ratioP2;P2;SDS_P1;SDS_P2;PMS_P1;PMS_P2;Temp;Humidity;BMP_temperature;BMP_pressure;BME280_temperature;BME280_humidity;BME280_pressure;Samples;Min_cycle;Max_cycle;Signal;HPM_P1;HPM_P2
2022/10/12 00:01:56;;;;;;;31.80;28.50;;;;;;;12.32;100.00;97384.97;5072564;28;20664;-57
2022/10/12 00:04:21;;;;;;;32.47;29.03;;;;;;;12.37;100.00;97377.22;5072659;28;20177;-56
2022/10/12 00:06:47;;;;;;;29.40;26.67;;;;;;;12.32;100.00;97392.84;5083732;28;20248;-56
2022/10/12 00:09:12;;;;;;;34.77;30.30;;;;;;;12.23;100.00;97397.63;5078427;28;20199;-55
2022/10/12 00:11:39;;;;;;;35.80;32.07;;;;;;;12.23;100.00;97394.19;5073186;28;20657;-54
2022/10/12 00:14:05;;;;;;;31.40;28.20;;;;;;;12.24;100.00;97395.78;5072773;28;20188;-56
2022/10/12 00:16:30;;;;;;;39.47;31.33;;;;;;;12.10;100.00;97392.50;5072349;28;20209;-56
2022/10/12 00:18:57;;;;;;;36.93;33.10;;;;;;;12.05;100.00;97385.31;5072593;28;20161;-56
2022/10/12 00:21:23;;;;;;;36.73;33.07;;;;;;;12.15;100.00;97384.00;5072817;28;20184;-56
2022/10/12 00:23:50;;;;;;;34.43;31.07;;;;;;;12.03;100.00;97390.00;5092486;28;20204;-56
2022/10/12 00:26:18;;;;;;;35.67;32.23;;;;;;;12.07;100.00;97387.72;5092377;28;20204;-57
2022/10/12 00:28:44;;;;;;;31.60;28.33;;;;;;;12.08;100.00;97387.50;5075347;28;20186;-56
2022/10/12 00:31:13;;;;;;;33.40;29.10;;;;;;;11.97;100.00;97375.09;5072340;28;20180;-54
2022/10/12 00:33:39;;;;;;;33.37;27.57;;;;;;;12.06;100.00;97380.84;5088683;28;20187;-56
2022/10/12 00:36:17;;;;;;;31.63;27.77;;;;;;;11.95;100.00;97379.78;5086106;28;20201;-57
2022/10/12 00:38:43;;;;;;;34.97;25.17;;;;;;;11.98;100.00;97379.31;5088236;28;20176;-55
2022/10/12 00:41:09;;;;;;;28.23;24.60;;;;;;;11.91;100.00;97377.81;5089953;28;20172;-57
2022/10/12 00:43:38;;;;;;;29.20;23.63;;;;;;;11.89;100.00;97369.34;5077804;28;20229;-56
2022/10/12 00:46:10;;;;;;;32.23;27.47;;;;;;;11.84;100.00;97375.25;5091869;28;20253;-57
2022/10/12 00:48:36;;;;;;;38.53;30.00;;;;;;;11.77;100.00;97379.78;5091032;28;20200;-57
2022/10/12 00:51:03;;;;;;;44.00;27.50;;;;;;;11.68;100.00;97375.81;5090810;28;20334;-57
2022/10/12 00:53:33;;;;;;;30.23;26.93;;;;;;;11.81;100.00;97369.66;5080361;28;20326;-57
2022/10/12 00:56:01;;;;;;;36.07;28.53;;;;;;;11.76;100.00;97370.28;5091049;28;20520;-57
2022/10/12 00:58:30;;;;;;;37.87;27.30;;;;;;;11.79;100.00;97369.06;5077532;28;20169;-55
2022/10/12 01:01:00;;;;;;;36.10;29.10;;;;;;;11.68;100.00;97375.81;5092004;28;20183;-56
2022/10/12 01:03:25;;;;;;;40.37;30.53;;;;;;;11.69;100.00;97372.16;5089441;28;20169;-57
2022/10/12 01:05:51;;;;;;;39.93;30.63;;;;;;;11.74;100.00;97376.78;5091675;28;20192;-57
2022/10/12 01:08:16;;;;;;;40.23;30.33;;;;;;;11.80;100.00;97373.28;5088346;28;20482;-55
2022/10/12 01:10:42;;;;;;;39.17;28.90;;;;;;;11.74;100.00;97372.34;5073126;28;20169;-56
2022/10/12 01:13:07;;;;;;;37.40;28.47;;;;;;;11.66;100.00;97381.28;5086500;28;20176;-57
2022/10/12 01:15:43;;;;;;;33.10;29.07;;;;;;;11.67;100.00;97380.25;5080066;28;20229;-55
2022/10/12 01:18:20;;;;;;;31.03;27.83;;;;;;;11.56;100.00;97383.59;5075701;28;20645;-54
2022/10/12 01:21:10;;;;;;;33.13;27.50;;;;;;;11.49;100.00;97377.59;5072001;28;20180;-55
2022/10/12 01:23:47;;;;;;;36.50;28.37;;;;;;;11.66;100.00;97383.09;5084899;28;20171;-54
2022/10/12 01:26:46;;;;;;;35.23;25.97;;;;;;;11.65;100.00;97379.66;5089090;28;20691;-56
2022/10/12 01:29:37;;;;;;;39.73;26.43;;;;;;;11.56;100.00;97380.16;5088958;28;20255;-55
2022/10/12 01:32:22;;;;;;;35.17;25.57;;;;;;;11.51;100.00;97380.03;5095431;28;20176;-56
2022/10/12 01:35:07;;;;;;;34.63;26.73;;;;;;;11.51;100.00;97372.16;5090593;28;20217;-56
2022/10/12 01:37:53;;;;;;;35.57;27.70;;;;;;;11.47;100.00;97373.63;5075345;28;20187;-57
2022/10/12 01:40:45;;;;;;;37.67;26.30;;;;;;;11.42;100.00;97370.84;5075839;28;20177;-53
2022/10/12 01:43:11;;;;;;;34.17;26.73;;;;;;;11.35;100.00;97367.47;5070485;28;20172;-56
2022/10/12 01:45:36;;;;;;;33.90;27.93;;;;;;;11.39;100.00;97358.94;5087525;28;20254;-56
2022/10/12 01:48:03;;;;;;;37.47;29.47;;;;;;;11.40;100.00;97362.38;5087707;28;20276;-57
2022/10/12 01:50:48;;;;;;;35.27;27.33;;;;;;;11.48;100.00;97360.25;5084236;28;20614;-56
2022/10/12 01:53:36;;;;;;;35.20;26.47;;;;;;;11.46;100.00;97369.38;5094922;28;20259;-54
2022/10/12 01:56:21;;;;;;;32.13;25.67;;;;;;;11.36;100.00;97364.63;5088790;28;20201;-56
2022/10/12 01:58:58;;;;;;;32.17;27.00;;;;;;;11.46;100.00;97366.75;5091275;28;20216;-55
2022/10/12 02:01:38;;;;;;;36.07;27.30;;;;;;;11.43;100.00;97359.28;5059221;28;20630;-56
2022/10/12 02:04:03;;;;;;;36.37;28.13;;;;;;;11.33;100.00;97362.44;5075136;28;20185;-54
2022/10/12 02:06:44;;;;;;;38.87;27.63;;;;;;;11.42;100.00;97365.59;5075260;28;20198;-57
2022/10/12 02:09:26;;;;;;;33.40;26.90;;;;;;;11.31;100.00;97359.22;5094087;28;20180;-54
2022/10/12 02:11:56;;;;;;;35.37;26.03;;;;;;;11.18;100.00;97360.16;5057196;28;20188;-57
2022/10/12 02:14:26;;;;;;;32.50;26.80;;;;;;;11.21;100.00;97364.97;5075310;28;20268;-57
2022/10/12 02:16:57;;;;;;;33.40;26.47;;;;;;;11.14;100.00;97356.38;5074790;28;20202;-57
2022/10/12 02:19:25;;;;;;;34.40;28.17;;;;;;;11.14;100.00;97358.19;5090473;28;20188;-57
2022/10/12 02:21:54;;;;;;;32.73;26.77;;;;;;;11.12;100.00;97354.97;5094808;28;20652;-55
2022/10/12 02:24:21;;;;;;;35.00;26.87;;;;;;;11.09;100.00;97355.41;5094415;28;20241;-57
2022/10/12 02:26:51;;;;;;;39.97;28.37;;;;;;;10.97;100.00;97346.63;5082053;28;20296;-57
2022/10/12 02:29:23;;;;;;;35.50;25.33;;;;;;;11.04;100.00;97345.53;5075045;28;20181;-56
2022/10/12 02:31:57;;;;;;;41.00;29.77;;;;;;;11.13;100.00;97351.31;5078597;28;20176;-57
2022/10/12 02:34:31;;;;;;;32.10;26.73;;;;;;;11.04;100.00;97352.59;5092202;28;20252;-57
2022/10/12 02:37:19;;;;;;;36.20;27.40;;;;;;;11.16;100.00;97351.69;5093452;28;20352;-57
2022/10/12 02:39:50;;;;;;;33.83;27.30;;;;;;;11.06;100.00;97348.75;5093403;28;20165;-57
2022/10/12 02:42:30;;;;;;;41.03;29.00;;;;;;;11.06;100.00;97351.38;5094548;28;20206;-55
2022/10/12 02:45:03;;;;;;;37.87;26.13;;;;;;;11.08;100.00;97345.94;5094145;28;20181;-55
2022/10/12 02:47:32;;;;;;;38.23;28.70;;;;;;;11.05;100.00;97351.59;5092058;28;20295;-57
2022/10/12 02:50:00;;;;;;;42.10;27.47;;;;;;;10.93;100.00;97348.84;5074453;28;20177;-57
2022/10/12 02:52:25;;;;;;;41.70;27.93;;;;;;;11.06;100.00;97353.19;5073707;28;20177;-55
2022/10/12 02:54:51;;;;;;;46.80;30.30;;;;;;;11.10;100.00;97349.13;5084961;28;20541;-56
2022/10/12 02:57:17;;;;;;;44.10;30.47;;;;;;;11.08;100.00;97348.56;5077795;28;20233;-57
2022/10/12 02:59:42;;;;;;;44.67;30.77;;;;;;;11.18;100.00;97339.16;5093024;28;20200;-57
2022/10/12 03:02:09;;;;;;;43.37;32.93;;;;;;;11.31;100.00;97347.94;5075987;28;20200;-55
2022/10/12 03:04:35;;;;;;;46.13;31.93;;;;;;;11.27;100.00;97342.31;5093832;28;20548;-57
2022/10/12 03:07:01;;;;;;;43.63;31.77;;;;;;;11.00;100.00;97351.44;5093873;28;20208;-53
2022/10/12 03:09:27;;;;;;;41.93;29.60;;;;;;;11.06;100.00;97348.75;5076375;28;20200;-54
2022/10/12 03:11:52;;;;;;;40.17;30.33;;;;;;;10.96;100.00;97343.19;5074092;28;20230;-55
2022/10/12 03:14:19;;;;;;;39.03;31.30;;;;;;;10.90;100.00;97354.53;5081319;28;20664;-56
2022/10/12 03:16:45;;;;;;;37.57;30.67;;;;;;;10.93;100.00;97355.91;5082875;28;20295;-56
2022/10/12 03:19:11;;;;;;;34.00;26.80;;;;;;;10.97;100.00;97355.31;5088401;28;20577;-51
2022/10/12 03:21:36;;;;;;;39.33;27.33;;;;;;;10.94;100.00;97354.91;5093246;28;20183;-55
2022/10/12 03:24:02;;;;;;;34.07;25.53;;;;;;;10.92;100.00;97354.34;5073320;28;20178;-56
2022/10/12 03:26:27;;;;;;;36.50;25.83;;;;;;;10.93;100.00;97364.59;5092901;28;20245;-57
2022/10/12 03:28:52;;;;;;;39.57;27.17;;;;;;;10.95;100.00;97357.31;5093415;28;20180;-56
2022/10/12 03:31:18;;;;;;;33.57;26.53;;;;;;;11.05;100.00;97356.84;5093323;28;20767;-57
2022/10/12 03:33:43;;;;;;;43.27;27.23;;;;;;;11.05;100.00;97354.22;5090533;28;20184;-55
2022/10/12 03:36:08;;;;;;;37.73;26.80;;;;;;;11.06;100.00;97359.25;5093502;28;20852;-55
2022/10/12 03:38:34;;;;;;;38.13;27.23;;;;;;;11.25;100.00;97357.47;5093432;28;20192;-56
2022/10/12 03:41:00;;;;;;;35.70;27.57;;;;;;;11.22;100.00;97363.94;5093337;28;20297;-57
2022/10/12 03:43:26;;;;;;;39.73;27.47;;;;;;;11.24;100.00;97361.13;5093451;28;20176;-56
2022/10/12 03:45:52;;;;;;;32.03;27.97;;;;;;;11.32;100.00;97366.06;5088204;28;20676;-55
2022/10/12 03:48:18;;;;;;;37.23;28.53;;;;;;;11.48;100.00;97368.13;5074047;28;20177;-56
2022/10/12 03:50:48;;;;;;;42.63;35.50;;;;;;;11.58;100.00;97359.75;5073174;28;20606;-52
2022/10/12 03:53:14;;;;;;;38.60;34.73;;;;;;;11.42;100.00;97369.03;5073092;28;20223;-52
2022/10/12 03:55:39;;;;;;;39.57;35.13;;;;;;;11.54;100.00;97366.44;5087218;28;20200;-56
2022/10/12 03:58:05;;;;;;;38.00;32.27;;;;;;;11.50;100.00;97360.84;5092102;28;20260;-52
2022/10/12 04:00:30;;;;;;;36.50;32.07;;;;;;;11.41;100.00;97364.78;5092288;28;20187;-55
2022/10/12 04:02:56;;;;;;;40.30;36.20;;;;;;;11.28;100.00;97362.28;5092264;28;20256;-56
2022/10/12 04:05:21;;;;;;;41.20;33.70;;;;;;;11.06;100.00;97359.25;5089972;28;20228;-58
2022/10/12 04:07:47;;;;;;;42.43;32.27;;;;;;;11.02;100.00;97357.28;5072635;28;20175;-56
2022/10/12 04:10:12;;;;;;;36.70;32.77;;;;;;;11.13;100.00;97357.38;5073756;28;20177;-52
2022/10/12 04:12:38;;;;;;;37.90;33.00;;;;;;;11.26;100.00;97356.44;5072927;28;20187;-55
2022/10/12 04:15:04;;;;;;;33.77;29.37;;;;;;;11.29;100.00;97353.38;5072539;28;20749;-56
2022/10/12 04:17:29;;;;;;;37.60;29.07;;;;;;;11.35;100.00;97351.72;5092736;28;20192;-55
2022/10/12 04:19:54;;;;;;;37.43;29.97;;;;;;;11.25;100.00;97363.53;5085862;28;20184;-55
2022/10/12 04:22:20;;;;;;;35.70;27.57;;;;;;;11.46;100.00;97364.13;5054744;28;20195;-55
2022/10/12 04:24:45;;;;;;;34.80;29.13;;;;;;;11.39;100.00;97358.94;5072509;28;20654;-56
2022/10/12 04:27:11;;;;;;;40.10;29.27;;;;;;;11.36;100.00;97362.00;5056727;28;20200;-56
2022/10/12 04:29:36;;;;;;;36.33;26.97;;;;;;;11.44;100.00;97366.97;5054377;28;20210;-53
2022/10/12 04:32:02;;;;;;;33.13;28.70;;;;;;;11.37;100.00;97360.97;5087520;28;20238;-53
2022/10/12 04:34:27;;;;;;;32.63;28.37;;;;;;;11.44;100.00;97359.09;5088162;28;20232;-56
2022/10/12 04:36:53;;;;;;;38.60;30.47;;;;;;;11.65;100.00;97361.28;5085226;28;20204;-56
2022/10/12 04:39:18;;;;;;;37.83;33.70;;;;;;;11.47;100.00;97361.28;5065535;28;20617;-54
2022/10/12 04:41:44;;;;;;;41.83;34.23;;;;;;;11.72;100.00;97363.03;5083840;28;20325;-58
2022/10/12 04:44:09;;;;;;;39.50;34.27;;;;;;;11.58;100.00;97363.19;5092015;28;20177;-54
2022/10/12 04:46:34;;;;;;;41.63;37.13;;;;;;;11.62;100.00;97372.22;5082010;28;20212;-53
2022/10/12 04:49:00;;;;;;;36.73;32.83;;;;;;;11.48;100.00;97362.88;5072403;28;20182;-54
2022/10/12 04:51:26;;;;;;;39.63;34.57;;;;;;;11.51;100.00;97366.91;5080146;28;20286;-53
2022/10/12 04:53:51;;;;;;;34.70;29.87;;;;;;;11.48;100.00;97375.22;5090898;28;20188;-52
2022/10/12 04:56:18;;;;;;;39.87;30.20;;;;;;;11.53;100.00;97368.31;5090099;28;20227;-56
2022/10/12 04:58:44;;;;;;;39.37;32.27;;;;;;;11.45;100.00;97371.19;5082081;28;20186;-56
2022/10/12 05:01:09;;;;;;;44.13;31.73;;;;;;;11.38;100.00;97369.66;5077176;28;20252;-54
2022/10/12 05:03:35;;;;;;;37.53;28.30;;;;;;;11.43;100.00;97370.59;5073099;28;20209;-52
2022/10/12 05:06:00;;;;;;;45.90;28.80;;;;;;;11.52;100.00;97373.75;5073152;28;20570;-52
2022/10/12 05:08:26;;;;;;;51.27;31.60;;;;;;;11.51;100.00;97372.97;5072229;28;20180;-53
2022/10/12 05:10:51;;;;;;;47.70;31.03;;;;;;;11.46;100.00;97377.25;5054268;28;20169;-57
2022/10/12 05:13:17;;;;;;;48.40;27.20;;;;;;;11.43;100.00;97377.66;5074099;28;20166;-57
2022/10/12 05:15:43;;;;;;;47.13;29.73;;;;;;;11.49;100.00;97380.22;5070214;28;20254;-57
2022/10/12 05:18:08;;;;;;;50.97;29.23;;;;;;;11.43;100.00;97375.84;5087478;28;20475;-57
2022/10/12 05:20:34;;;;;;;56.10;30.43;;;;;;;11.44;100.00;97377.47;5084805;28;20188;-56
2022/10/12 05:22:59;;;;;;;64.63;30.90;;;;;;;11.50;100.00;97381.84;5091585;28;20184;-57
2022/10/12 05:25:28;;;;;;;50.97;29.97;;;;;;;11.50;100.00;97371.34;5091838;28;20231;-57
2022/10/12 05:27:54;;;;;;;57.20;30.70;;;;;;;11.64;100.00;97375.47;5075523;28;20597;-55
2022/10/12 05:30:19;;;;;;;53.70;29.47;;;;;;;11.51;100.00;97378.19;5082692;28;20324;-55
2022/10/12 05:32:44;;;;;;;58.50;30.53;;;;;;;11.50;100.00;97375.78;5079371;28;20177;-56
2022/10/12 05:35:10;;;;;;;52.93;30.27;;;;;;;11.68;100.00;97383.69;5078634;28;20241;-54
2022/10/12 05:37:35;;;;;;;50.53;29.03;;;;;;;11.51;100.00;97372.16;5087711;28;20184;-56
2022/10/12 05:40:01;;;;;;;51.37;30.30;;;;;;;11.68;100.00;97379.25;5073179;28;20178;-58
2022/10/12 05:42:26;;;;;;;55.30;30.97;;;;;;;11.61;100.00;97377.69;5091615;28;20188;-55
2022/10/12 05:44:52;;;;;;;44.87;28.37;;;;;;;11.62;100.00;97381.94;5091717;28;20172;-58
2022/10/12 05:47:17;;;;;;;50.63;29.73;;;;;;;11.55;100.00;97383.81;5092010;28;20181;-57
2022/10/12 05:49:42;;;;;;;43.33;29.23;;;;;;;11.55;100.00;97382.00;5089952;28;20622;-63
2022/10/12 05:52:08;;;;;;;47.60;29.83;;;;;;;11.53;100.00;97375.38;5060053;28;20221;-56
2022/10/12 05:54:33;;;;;;;45.87;29.10;;;;;;;11.52;100.00;97379.81;5090186;28;20189;-58
2022/10/12 05:56:58;;;;;;;48.20;29.43;;;;;;;11.54;100.00;97375.13;5091150;28;20205;-56
2022/10/12 05:59:24;;;;;;;38.67;27.80;;;;;;;11.57;100.00;97392.28;5091483;28;20268;-57
2022/10/12 06:01:50;;;;;;;42.63;29.73;;;;;;;11.58;100.00;97386.81;5071755;28;20243;-57
2022/10/12 06:04:15;;;;;;;38.17;30.53;;;;;;;11.60;100.00;97390.03;5071456;28;20185;-57
2022/10/12 06:06:41;;;;;;;34.83;28.07;;;;;;;11.59;100.00;97391.03;5071420;28;20660;-53
2022/10/12 06:09:06;;;;;;;35.97;29.27;;;;;;;11.63;100.00;97391.41;5084841;28;20193;-54
2022/10/12 06:11:32;;;;;;;33.87;27.00;;;;;;;11.59;100.00;97383.16;5076152;28;20176;-55
2022/10/12 06:13:57;;;;;;;37.07;29.57;;;;;;;11.61;100.00;97389.00;5074938;28;20177;-51
2022/10/12 06:16:23;;;;;;;32.30;28.47;;;;;;;11.68;100.00;97384.50;5081598;28;20693;-52
2022/10/12 06:18:48;;;;;;;33.77;29.80;;;;;;;11.82;100.00;97386.97;5094908;28;20279;-52
2022/10/12 06:21:14;;;;;;;33.80;29.93;;;;;;;11.80;100.00;97381.97;5080767;28;20177;-64
2022/10/12 06:23:40;;;;;;;32.57;29.17;;;;;;;11.90;100.00;97384.06;5093184;28;20617;-55
2022/10/12 06:26:05;;;;;;;36.07;29.63;;;;;;;12.10;100.00;97384.63;5094657;28;20254;-51
2022/10/12 06:28:31;;;;;;;31.93;28.20;;;;;;;12.27;100.00;97390.06;5092978;28;20204;-55
2022/10/12 06:30:58;;;;;;;28.87;25.57;;;;;;;12.07;100.00;97388.53;5094298;28;20189;-56
2022/10/12 06:33:25;;;;;;;28.97;24.63;;;;;;;12.11;100.00;97393.31;5094616;28;20183;-55
2022/10/12 06:35:51;;;;;;;28.73;25.53;;;;;;;12.21;100.00;97394.41;5091860;28;20582;-55
2022/10/12 06:38:16;;;;;;;30.00;26.57;;;;;;;12.21;100.00;97399.66;5092209;28;20189;-54
2022/10/12 06:40:42;;;;;;;39.00;35.20;;;;;;;12.26;100.00;97399.00;5074974;28;20176;-55
2022/10/12 06:43:08;;;;;;;37.37;33.87;;;;;;;12.38;100.00;97397.22;5074989;28;20567;-55
2022/10/12 06:45:33;;;;;;;33.60;30.13;;;;;;;12.36;100.00;97394.81;5074279;28;20201;-56
2022/10/12 06:47:59;;;;;;;33.67;30.17;;;;;;;12.40;100.00;97398.59;5074289;28;20185;-54
2022/10/12 06:50:25;;;;;;;31.97;28.17;;;;;;;12.42;100.00;97404.47;5076840;28;20176;-53
2022/10/12 06:52:51;;;;;;;31.00;27.70;;;;;;;12.18;100.00;97397.47;5075566;28;20222;-53
2022/10/12 06:55:17;;;;;;;32.30;27.03;;;;;;;12.28;100.00;97402.19;5083717;28;20213;-55
2022/10/12 06:57:42;;;;;;;32.13;28.50;;;;;;;12.23;100.00;97407.31;5055939;28;20191;-52
2022/10/12 07:00:08;;;;;;;31.03;27.83;;;;;;;12.33;100.00;97410.22;5079214;28;20295;-52
2022/10/12 07:02:35;;;;;;;30.10;26.83;;;;;;;12.54;100.00;97404.47;5079120;28;20196;-52
2022/10/12 07:05:00;;;;;;;28.93;25.50;;;;;;;12.68;100.00;97400.66;5093682;28;20184;-57
2022/10/12 07:07:30;;;;;;;31.90;27.20;;;;;;;12.63;100.00;97397.88;5094002;28;20319;-54
2022/10/12 07:09:56;;;;;;;36.47;31.87;;;;;;;12.86;100.00;97403.22;5083980;28;20203;-54
2022/10/12 07:12:21;;;;;;;41.83;37.70;;;;;;;12.83;100.00;97402.84;5089184;28;20635;-55
2022/10/12 07:14:46;;;;;;;47.73;43.30;;;;;;;13.02;100.00;97404.38;5073585;28;20173;-53
2022/10/12 07:17:12;;;;;;;48.83;44.57;;;;;;;13.15;100.00;97406.03;5074641;28;20267;-56
2022/10/12 07:19:37;;;;;;;49.00;44.50;;;;;;;12.89;100.00;97410.66;5073627;28;20226;-52
2022/10/12 07:22:03;;;;;;;51.67;47.20;;;;;;;13.15;100.00;97409.44;5073237;28;20185;-56
2022/10/12 07:24:35;;;;;;;40.27;36.70;;;;;;;13.24;100.00;97405.47;5073489;28;20228;-51
2022/10/12 07:27:06;;;;;;;39.77;36.13;;;;;;;13.46;100.00;97405.72;5084071;28;20695;-55
2022/10/12 07:29:33;;;;;;;35.50;32.07;;;;;;;13.52;100.00;97401.34;5074599;28;20170;-55
2022/10/12 07:31:59;;;;;;;32.77;28.67;;;;;;;13.38;100.00;97392.88;5055939;28;20546;-54
2022/10/12 07:34:25;;;;;;;30.43;27.10;;;;;;;13.58;100.00;97403.88;5088032;28;20236;-55
2022/10/12 07:36:51;;;;;;;30.43;27.13;;;;;;;13.39;100.00;97407.66;5079789;28;20204;-52
2022/10/12 07:39:16;;;;;;;31.17;27.87;;;;;;;13.53;100.00;97403.78;5093683;28;20551;-51
2022/10/12 07:41:42;;;;;;;32.57;29.27;;;;;;;13.61;100.00;97410.50;5093874;28;20175;-53
2022/10/12 07:44:07;;;;;;;31.00;27.73;;;;;;;13.49;100.00;97402.59;5078316;28;20180;-50
2022/10/12 07:46:33;;;;;;;32.63;29.43;;;;;;;13.68;100.00;97404.09;5076591;28;20279;-57
2022/10/12 07:48:58;;;;;;;38.23;34.77;;;;;;;13.82;100.00;97409.13;5093701;28;20177;-57
2022/10/12 07:51:24;;;;;;;44.23;40.20;;;;;;;14.28;100.00;97406.38;5092583;28;20254;-56
2022/10/12 07:53:49;;;;;;;64.07;59.00;;;;;;;13.94;100.00;97408.06;5091792;28;20197;-51
2022/10/12 07:56:16;;;;;;;52.00;47.33;;;;;;;14.24;100.00;97405.25;5091485;28;20204;-54
2022/10/12 07:59:03;;;;;;;42.20;38.30;;;;;;;14.25;100.00;97403.41;5093051;28;20177;-54
2022/10/12 08:01:30;;;;;;;34.97;31.53;;;;;;;14.08;100.00;97405.97;5081768;28;20280;-53
2022/10/12 08:03:56;;;;;;;30.90;27.57;;;;;;;13.83;100.00;97408.06;5073046;28;20566;-55
2022/10/12 08:06:23;;;;;;;39.07;35.13;;;;;;;14.13;100.00;97411.34;5073885;28;20334;-50
2022/10/12 08:08:50;;;;;;;40.83;36.83;;;;;;;14.33;100.00;97411.72;5098261;28;20529;-56
2022/10/12 08:11:16;;;;;;;51.77;47.13;;;;;;;14.55;100.00;97414.56;5113671;28;20163;-53
2022/10/12 08:13:42;;;;;;;54.67;50.40;;;;;;;14.51;100.00;97408.94;5096112;28;20763;-53
2022/10/12 08:16:11;;;;;;;32.20;29.20;;;;;;;14.76;100.00;97410.47;5087783;28;20200;-58
2022/10/12 08:18:37;;;;;;;50.33;46.23;;;;;;;14.67;100.00;97415.31;5073041;28;20227;-58
2022/10/12 08:21:04;;;;;;;43.93;40.07;;;;;;;14.80;100.00;97416.84;5072836;28;20181;-58
2022/10/12 08:23:30;;;;;;;35.90;32.73;;;;;;;14.83;100.00;97416.38;5077205;28;20172;-56
2022/10/12 08:25:57;;;;;;;29.50;26.50;;;;;;;14.84;100.00;97425.88;5105114;28;20196;-53
2022/10/12 08:28:23;;;;;;;25.83;22.97;;;;;;;14.89;100.00;97426.78;5113320;28;20543;-56
2022/10/12 08:30:49;;;;;;;31.20;28.20;;;;;;;14.97;100.00;97417.69;5094081;28;20187;-52
2022/10/12 08:33:15;;;;;;;31.27;27.97;;;;;;;15.27;100.00;97422.63;5092104;28;20177;-55
2022/10/12 08:35:41;;;;;;;29.73;26.73;;;;;;;15.04;100.00;97428.91;5090565;28;20239;-55
2022/10/12 08:38:09;;;;;;;29.10;26.17;;;;;;;15.21;100.00;97429.69;5092965;28;20169;-55
2022/10/12 08:40:52;;;;;;;29.10;26.13;;;;;;;15.33;100.00;97427.75;5092978;28;20598;-55
2022/10/12 08:43:27;;;;;;;28.53;25.60;;;;;;;14.86;100.00;97421.19;5072425;28;20192;-56
2022/10/12 08:45:55;;;;;;;28.20;25.43;;;;;;;14.83;100.00;97422.44;5072398;28;20201;-57
2022/10/12 08:48:31;;;;;;;30.10;27.40;;;;;;;14.95;100.00;97423.19;5072666;28;20521;-56
2022/10/12 08:51:09;;;;;;;33.27;30.10;;;;;;;15.67;100.00;97417.19;5071972;28;20177;-55
2022/10/12 08:53:42;;;;;;;26.77;24.00;;;;;;;15.57;100.00;97419.69;5079693;28;20267;-56
2022/10/12 08:56:08;;;;;;;27.23;24.03;;;;;;;15.61;100.00;97410.22;5075828;28;20635;-55
2022/10/12 08:58:38;;;;;;;35.87;32.73;;;;;;;15.31;100.00;97419.31;5073678;28;20248;-54
2022/10/12 09:01:20;;;;;;;48.70;44.65;;;;;;;15.44;100.00;97415.50;5089951;28;20259;-53
2022/10/12 09:04:08;;;;;;;39.57;36.17;;;;;;;15.88;100.00;97411.16;5089015;28;20180;-56
2022/10/12 09:06:59;;;;;;;33.33;30.23;;;;;;;15.58;100.00;97411.53;5080933;28;20201;-55
2022/10/12 09:09:58;;;;;;;29.10;26.23;;;;;;;15.36;100.00;97411.44;5081876;28;20183;-52
2022/10/12 09:12:24;;;;;;;28.77;25.40;;;;;;;15.81;100.00;97413.19;5089438;28;20183;-53
2022/10/12 09:14:55;;;;;;;38.50;35.00;;;;;;;16.07;100.00;97409.00;5083483;28;20188;-57
2022/10/12 09:17:37;;;;;;;37.75;34.45;;;;;;;15.73;100.00;97409.09;5080365;28;20193;-55
2022/10/12 09:20:20;;;;;;;35.63;32.27;;;;;;;16.07;100.00;97401.88;5082366;28;20203;-55
2022/10/12 09:22:49;;;;;;;32.77;29.67;;;;;;;16.09;100.00;97405.09;5086078;28;20268;-55
2022/10/12 09:25:24;;;;;;;28.90;26.07;;;;;;;15.60;100.00;97413.94;5091072;28;20269;-53
2022/10/12 09:27:50;;;;;;;36.05;32.97;;;;;;;15.42;100.00;97416.81;5085728;28;20177;-55
2022/10/12 09:30:18;;;;;;;45.00;41.50;;;;;;;15.71;100.00;97418.34;5071763;28;20187;-55
2022/10/12 09:33:02;;;;;;;64.18;59.65;;;;;;;16.04;100.00;97422.72;5088838;28;20180;-56
2022/10/12 09:35:28;;;;;;;87.25;81.55;;;;;;;15.41;100.00;97426.56;5061536;28;20236;-57
2022/10/12 09:37:53;;;;;;;73.65;68.32;;;;;;;15.47;100.00;97425.59;5051556;28;20194;-57
2022/10/12 09:40:31;;;;;;;38.47;35.38;;;;;;;15.41;100.00;97426.56;5066003;28;20188;-54
2022/10/12 09:42:59;;;;;;;41.30;37.63;;;;;;;15.99;100.00;97428.75;5052249;28;20207;-55
2022/10/12 09:45:34;;;;;;;72.63;67.70;;;;;;;15.55;100.00;97432.38;5070649;28;20201;-54
2022/10/12 09:48:08;;;;;;;35.83;32.60;;;;;;;15.04;100.00;97436.81;5066748;28;20623;-57
2022/10/12 09:50:59;;;;;;;61.40;57.13;;;;;;;15.29;100.00;97425.84;5054783;28;20657;-51
2022/10/12 09:53:32;;;;;;;38.75;35.65;;;;;;;15.38;100.00;97433.13;5070358;28;20615;-54
2022/10/12 09:56:05;;;;;;;35.43;32.07;;;;;;;15.60;100.00;97429.81;5058434;28;20197;-56
2022/10/12 09:58:38;;;;;;;35.55;32.63;;;;;;;15.44;100.00;97428.72;5055436;28;20178;-53
2022/10/12 10:01:20;;;;;;;41.13;37.53;;;;;;;15.82;100.00;97428.00;5055211;28;20541;-57
2022/10/12 10:03:47;;;;;;;41.10;37.70;;;;;;;15.80;100.00;97424.78;5057174;28;20245;-53
2022/10/12 10:06:14;;;;;;;24.80;22.48;;;;;;;15.65;100.00;97425.38;5064080;28;20335;-57
2022/10/12 10:08:43;;;;;;;34.27;31.40;;;;;;;15.28;100.00;97429.53;5057451;28;20667;-56
2022/10/12 10:11:19;;;;;;;45.10;41.60;;;;;;;15.45;100.00;97435.59;5068262;28;20302;-55
2022/10/12 10:13:53;;;;;;;24.98;22.42;;;;;;;15.71;100.00;97426.25;5073939;28;20174;-54
2022/10/12 10:16:22;;;;;;;22.93;20.93;;;;;;;15.82;100.00;97435.13;5064921;28;20747;-55
2022/10/12 10:18:54;;;;;;;22.97;18.47;;;;;;;16.06;97.82;97432.00;5062568;28;20162;-56
2022/10/12 10:21:36;;;;;;;47.90;44.28;;;;;;;15.92;97.21;97424.69;5041965;28;20173;-54
2022/10/12 10:24:05;;;;;;;23.42;20.92;;;;;;;16.10;94.28;97427.84;5055503;28;20239;-54
2022/10/12 10:26:58;;;;;;;19.00;17.00;;;;;;;16.25;93.55;97427.22;5057019;28;20222;-52
2022/10/12 10:29:37;;;;;;;18.17;16.08;;;;;;;16.25;93.41;97418.47;5074145;28;20182;-55
2022/10/12 10:32:15;;;;;;;17.25;14.48;;;;;;;16.28;94.82;97416.13;5061630;28;20185;-56
2022/10/12 10:34:41;;;;;;;17.45;15.82;;;;;;;16.26;93.10;97422.72;5075084;28;20677;-52
2022/10/12 10:37:16;;;;;;;21.30;19.40;;;;;;;16.54;92.30;97422.53;5090527;28;20217;-53
2022/10/12 10:39:48;;;;;;;21.58;19.58;;;;;;;16.43;92.13;97424.25;5074572;28;20173;-53
2022/10/12 10:42:20;;;;;;;26.23;23.77;;;;;;;16.84;91.81;97420.19;5075968;28;20176;-54
2022/10/12 10:44:51;;;;;;;19.88;18.17;;;;;;;16.36;93.81;97425.50;5092721;28;20180;-54
2022/10/12 10:47:18;;;;;;;17.27;15.48;;;;;;;16.70;89.56;97424.31;5079144;28;20170;-54
2022/10/12 10:49:54;;;;;;;19.42;14.52;;;;;;;16.36;92.87;97425.50;5090945;28;20187;-57
2022/10/12 10:52:29;;;;;;;15.23;13.77;;;;;;;17.10;88.16;97425.75;5085709;28;20274;-54
2022/10/12 10:55:09;;;;;;;13.93;12.50;;;;;;;16.67;90.06;97416.84;5073540;28;20260;-57
2022/10/12 10:57:42;;;;;;;30.92;28.35;;;;;;;16.32;91.27;97416.47;5081335;28;20201;-54
2022/10/12 11:00:18;;;;;;;37.20;34.50;;;;;;;17.27;86.86;97418.47;5074094;28;20556;-57
2022/10/12 11:02:55;;;;;;;37.60;34.83;;;;;;;16.84;88.81;97420.19;5077802;28;20204;-52
2022/10/12 11:05:38;;;;;;;68.25;63.72;;;;;;;17.13;87.54;97418.06;5089478;28;20199;-58
2022/10/12 11:08:25;;;;;;;68.32;63.92;;;;;;;17.32;86.31;97426.44;5074887;28;20641;-57
2022/10/12 11:11:00;;;;;;;88.85;82.80;;;;;;;17.42;85.88;97416.72;5093155;28;20172;-62
2022/10/12 11:13:39;;;;;;;84.68;79.20;;;;;;;17.37;86.17;97414.03;5084890;28;20177;-58
2022/10/12 11:16:23;;;;;;;70.82;66.38;;;;;;;17.33;86.50;97414.81;5075800;28;20200;-56
2022/10/12 11:18:54;;;;;;;138.02;129.50;;;;;;;16.67;89.08;97414.19;5076869;28;20169;-60
2022/10/12 11:21:36;;;;;;;200.27;187.73;;;;;;;17.23;86.96;97407.56;5086045;28;20617;-55